Frankfurt / M-Flughafen, Germany (EDDF) 50-03N 008-36E 113M
Jun 24, 2019 - 01:20 PM EDT / 2019.06.24 1720 UTC
Wind: from the E (100 degrees) at 13 MPH (11 KT) (direction variable):0
Visibility: greater than 7 mile(s):0
Temperature: 86 F (30 C)
Dew Point: 59 F (15 C)
Relative Humidity: 40%
Pressure (altimeter): 30.06 in. Hg (1018 hPa)
ob: EDDF 241720Z 10011KT 060V130 CAVOK 30/15 Q1018 NOSIG
cycle: 17